sensor_id;sensor_type;location;lat;lon;timestamp;P1;durP1;ratioP1;P2;durP2;ratioP2
38190;SDS011;25191;47.510;19.124;2024-01-07T00:08:37;13.52;;;10.25;;
38190;SDS011;25191;47.510;19.124;2024-01-07T00:28:37;12.02;;;9.60;;
38190;SDS011;25191;47.510;19.124;2024-01-07T00:48:39;11.35;;;9.25;;
38190;SDS011;25191;47.510;19.124;2024-01-07T01:08:40;11.07;;;8.38;;
38190;SDS011;25191;47.510;19.124;2024-01-07T01:28:40;10.35;;;8.25;;
38190;SDS011;25191;47.510;19.124;2024-01-07T01:48:41;8.55;;;7.65;;
38190;SDS011;25191;47.510;19.124;2024-01-07T02:08:42;8.73;;;7.15;;
38190;SDS011;25191;47.510;19.124;2024-01-07T02:28:43;9.80;;;6.90;;
38190;SDS011;25191;47.510;19.124;2024-01-07T02:48:43;7.68;;;6.80;;
38190;SDS011;25191;47.510;19.124;2024-01-07T03:08:43;8.45;;;5.88;;
38190;SDS011;25191;47.510;19.124;2024-01-07T03:28:44;6.20;;;5.32;;
38190;SDS011;25191;47.510;19.124;2024-01-07T03:48:45;6.97;;;5.00;;
38190;SDS011;25191;47.510;19.124;2024-01-07T04:08:46;5.60;;;5.00;;
38190;SDS011;25191;47.510;19.124;2024-01-07T04:28:46;5.53;;;4.68;;
38190;SDS011;25191;47.510;19.124;2024-01-07T04:48:47;6.07;;;4.50;;
38190;SDS011;25191;47.510;19.124;2024-01-07T05:08:47;4.75;;;4.13;;
38190;SDS011;25191;47.510;19.124;2024-01-07T05:28:47;4.53;;;4.13;;
38190;SDS011;25191;47.510;19.124;2024-01-07T05:48:48;4.38;;;3.92;;
38190;SDS011;25191;47.510;19.124;2024-01-07T06:08:49;3.55;;;3.25;;
38190;SDS011;25191;47.510;19.124;2024-01-07T06:28:49;4.03;;;3.13;;
38190;SDS011;25191;47.510;19.124;2024-01-07T06:48:50;3.42;;;3.13;;
38190;SDS011;25191;47.510;19.124;2024-01-07T07:08:50;2.90;;;2.60;;
38190;SDS011;25191;47.510;19.124;2024-01-07T07:28:51;4.40;;;3.30;;
38190;SDS011;25191;47.510;19.124;2024-01-07T07:48:51;4.65;;;3.03;;
38190;SDS011;25191;47.510;19.124;2024-01-07T08:08:52;3.95;;;3.50;;
38190;SDS011;25191;47.510;19.124;2024-01-07T08:28:52;7.47;;;4.93;;
38190;SDS011;25191;47.510;19.124;2024-01-07T08:48:53;6.28;;;4.88;;
38190;SDS011;25191;47.510;19.124;2024-01-07T09:08:53;8.57;;;5.30;;
38190;SDS011;25191;47.510;19.124;2024-01-07T09:28:54;7.40;;;5.97;;
38190;SDS011;25191;47.510;19.124;2024-01-07T09:48:54;7.35;;;6.30;;
38190;SDS011;25191;47.510;19.124;2024-01-07T10:08:54;3.72;;;2.88;;
38190;SDS011;25191;47.510;19.124;2024-01-07T10:28:55;4.50;;;2.72;;
38190;SDS011;25191;47.510;19.124;2024-01-07T10:48:59;10.18;;;3.00;;
38190;SDS011;25191;47.510;19.124;2024-01-07T11:09:12;4.30;;;3.30;;
38190;SDS011;25191;47.510;19.124;2024-01-07T11:29:19;5.93;;;3.50;;
38190;SDS011;25191;47.510;19.124;2024-01-07T11:49:20;13.32;;;6.00;;
38190;SDS011;25191;47.510;19.124;2024-01-07T12:09:21;13.88;;;7.35;;
38190;SDS011;25191;47.510;19.124;2024-01-07T12:29:21;18.50;;;7.15;;
38190;SDS011;25191;47.510;19.124;2024-01-07T12:49:23;18.25;;;7.82;;
38190;SDS011;25191;47.510;19.124;2024-01-07T13:09:24;20.73;;;7.47;;
38190;SDS011;25191;47.510;19.124;2024-01-07T13:29:24;13.35;;;5.55;;
38190;SDS011;25191;47.510;19.124;2024-01-07T13:49:25;9.43;;;5.05;;
38190;SDS011;25191;47.510;19.124;2024-01-07T14:09:25;11.18;;;4.00;;
38190;SDS011;25191;47.510;19.124;2024-01-07T14:29:25;9.40;;;3.78;;
38190;SDS011;25191;47.510;19.124;2024-01-07T14:49:26;6.43;;;3.47;;
38190;SDS011;25191;47.510;19.124;2024-01-07T15:09:26;5.32;;;3.08;;
38190;SDS011;25191;47.510;19.124;2024-01-07T15:29:27;6.82;;;3.15;;
38190;SDS011;25191;47.510;19.124;2024-01-07T15:49:27;5.20;;;3.20;;
38190;SDS011;25191;47.510;19.124;2024-01-07T16:09:29;10.85;;;3.40;;
38190;SDS011;25191;47.510;19.124;2024-01-07T16:29:34;8.02;;;3.20;;
38190;SDS011;25191;47.510;19.124;2024-01-07T16:49:35;9.80;;;3.47;;
38190;SDS011;25191;47.510;19.124;2024-01-07T17:09:36;6.53;;;3.85;;
38190;SDS011;25191;47.510;19.124;2024-01-07T17:29:36;10.50;;;6.18;;
38190;SDS011;25191;47.510;19.124;2024-01-07T17:49:36;302.25;;;204.20;;
38190;SDS011;25191;47.510;19.124;2024-01-07T18:09:37;309.10;;;213.60;;
38190;SDS011;25191;47.510;19.124;2024-01-07T18:29:38;314.55;;;223.77;;
38190;SDS011;25191;47.510;19.124;2024-01-07T18:49:39;312.80;;;221.00;;
38190;SDS011;25191;47.510;19.124;2024-01-07T19:09:40;271.33;;;189.55;;
38190;SDS011;25191;47.510;19.124;2024-01-07T19:29:41;241.48;;;164.90;;
38190;SDS011;25191;47.510;19.124;2024-01-07T19:49:43;210.20;;;143.63;;
38190;SDS011;25191;47.510;19.124;2024-01-07T20:09:44;180.68;;;125.38;;
38190;SDS011;25191;47.510;19.124;2024-01-07T20:29:44;69.20;;;48.78;;
38190;SDS011;25191;47.510;19.124;2024-01-07T20:49:46;78.10;;;54.22;;
38190;SDS011;25191;47.510;19.124;2024-01-07T21:09:46;76.28;;;50.38;;
38190;SDS011;25191;47.510;19.124;2024-01-07T21:29:47;64.78;;;44.53;;
38190;SDS011;25191;47.510;19.124;2024-01-07T21:49:48;58.78;;;39.72;;
38190;SDS011;25191;47.510;19.124;2024-01-07T22:09:50;52.63;;;36.00;;
38190;SDS011;25191;47.510;19.124;2024-01-07T22:29:50;46.53;;;33.22;;
38190;SDS011;25191;47.510;19.124;2024-01-07T22:49:51;41.28;;;30.48;;
38190;SDS011;25191;47.510;19.124;2024-01-07T23:09:51;38.72;;;27.17;;
38190;SDS011;25191;47.510;19.124;2024-01-07T23:29:52;32.90;;;24.58;;
38190;SDS011;25191;47.510;19.124;2024-01-07T23:49:52;28.73;;;21.88;;
